Time,TemperatureF,DewpointF,PressureIn,WindDirection,WindDirectionDegrees,WindSpeedMPH,WindSpeedGustMPH,Humidity,HourlyPrecipIn,Conditions,Clouds,dailyrainin,SoftwareType,DateUTC
2013-02-08 00:06:00,25.1,23.0,30.04,North,350,0.0,0.0,93,0.00,,,0.00,weatherlink.com 1.10,2013-02-08 06:06:00,
2013-02-08 00:21:00,25.1,24.0,30.04,NNW,347,0.0,0.0,94,0.00,,,0.00,weatherlink.com 1.10,2013-02-08 06:21:00,
2013-02-08 00:36:00,25.2,24.0,30.05,NW,318,0.0,0.0,94,0.00,,,0.00,weatherlink.com 1.10,2013-02-08 06:36:00,
2013-02-08 00:51:00,25.2,24.0,30.05,NNE,28,0.0,0.0,94,0.00,,,0.00,weatherlink.com 1.10,2013-02-08 06:51:00,
2013-02-08 01:06:00,24.8,23.0,30.06,NNE,19,0.0,0.0,93,0.00,,,0.00,weatherlink.com 1.10,2013-02-08 07:06:00,
2013-02-08 01:21:00,24.2,22.0,30.07,NNE,29,0.0,0.0,92,0.00,,,0.00,weatherlink.com 1.10,2013-02-08 07:21:00,
2013-02-08 01:36:00,24.0,22.0,30.08,WNW,303,0.0,0.0,93,0.00,,,0.00,weatherlink.com 1.10,2013-02-08 07:36:00,
2013-02-08 01:51:00,23.7,22.0,30.10,NNE,15,0.0,0.0,92,0.00,,,0.00,weatherlink.com 1.10,2013-02-08 07:51:00,
2013-02-08 02:06:00,23.6,22.0,30.10,North,5,0.0,0.0,92,0.00,,,0.00,weatherlink.com 1.10,2013-02-08 08:06:00,
2013-02-08 02:21:00,23.6,22.0,30.11,NNE,17,0.0,0.0,92,0.00,,,0.00,weatherlink.com 1.10,2013-02-08 08:21:00,
2013-02-08 02:36:00,23.6,22.0,30.11,North,360,0.0,0.0,92,0.00,,,0.00,weatherlink.com 1.10,2013-02-08 08:36:00,
2013-02-08 02:51:00,23.6,22.0,30.11,NNW,331,0.0,0.0,92,0.00,,,0.00,weatherlink.com 1.10,2013-02-08 08:51:00,
2013-02-08 03:06:00,23.4,22.0,30.12,NNW,342,0.0,0.0,92,0.00,,,0.00,weatherlink.com 1.10,2013-02-08 09:06:00,
2013-02-08 03:21:00,23.1,21.0,30.12,North,11,0.0,0.0,91,0.00,,,0.00,weatherlink.com 1.10,2013-02-08 09:21:00,
2013-02-08 03:36:00,22.5,20.0,30.13,North,355,0.0,0.0,91,0.00,,,0.00,weatherlink.com 1.10,2013-02-08 09:36:00,
2013-02-08 03:51:00,22.3,20.0,30.13,ENE,67,0.0,0.0,91,0.00,,,0.00,weatherlink.com 1.10,2013-02-08 09:51:00,
2013-02-08 04:06:00,22.4,20.0,30.14,North,5,0.0,0.0,91,0.00,,,0.00,weatherlink.com 1.10,2013-02-08 10:06:00,
2013-02-08 04:22:00,22.5,20.0,30.14,NE,36,0.0,0.0,91,0.00,,,0.00,weatherlink.com 1.10,2013-02-08 10:22:00,
2013-02-08 04:37:00,22.6,20.0,30.17,NNW,332,0.0,0.0,91,0.00,,,0.00,weatherlink.com 1.10,2013-02-08 10:37:00,
2013-02-08 04:52:00,22.7,21.0,30.18,NW,306,0.0,0.0,91,0.00,,,0.00,weatherlink.com 1.10,2013-02-08 10:52:00,
2013-02-08 05:07:00,22.7,21.0,30.19,NNE,17,0.0,0.0,91,0.00,,,0.00,weatherlink.com 1.10,2013-02-08 11:07:00,
2013-02-08 05:22:00,22.7,21.0,30.19,NNE,29,0.0,0.0,91,0.00,,,0.00,weatherlink.com 1.10,2013-02-08 11:22:00,
2013-02-08 05:37:00,22.8,21.0,30.19,NNE,24,0.0,0.0,91,0.00,,,0.00,weatherlink.com 1.10,2013-02-08 11:37:00,
2013-02-08 05:52:00,22.7,21.0,30.20,NW,306,0.0,0.0,91,0.00,,,0.00,weatherlink.com 1.10,2013-02-08 11:52:00,
2013-02-08 06:07:00,22.7,20.0,30.20,NW,309,0.0,0.0,90,0.00,,,0.00,weatherlink.com 1.10,2013-02-08 12:07:00,
2013-02-08 06:22:00,22.7,20.0,30.20,North,355,0.0,0.0,90,0.00,,,0.00,weatherlink.com 1.10,2013-02-08 12:22:00,
2013-02-08 06:37:00,22.9,20.0,30.21,North,360,0.0,0.0,90,0.00,,,0.00,weatherlink.com 1.10,2013-02-08 12:37:00,
2013-02-08 06:52:00,23.0,21.0,30.22,NNW,333,0.0,0.0,90,0.00,,,0.00,weatherlink.com 1.10,2013-02-08 12:52:00,
2013-02-08 07:07:00,23.0,21.0,30.22,NNW,348,0.0,0.0,90,0.00,,,0.00,weatherlink.com 1.10,2013-02-08 13:07:00,
2013-02-08 07:22:00,23.0,21.0,30.24,NNW,348,0.0,0.0,90,0.00,,,0.00,weatherlink.com 1.10,2013-02-08 13:22:00,
2013-02-08 07:37:00,23.1,21.0,30.25,North,5,0.0,0.0,90,0.00,,,0.00,weatherlink.com 1.10,2013-02-08 13:37:00,
2013-02-08 07:52:00,23.3,21.0,30.26,NNE,17,0.0,0.0,90,0.00,,,0.00,weatherlink.com 1.10,2013-02-08 13:52:00,
2013-02-08 08:07:00,23.4,21.0,30.27,North,355,0.0,0.0,90,0.00,,,0.00,weatherlink.com 1.10,2013-02-08 14:07:00,
2013-02-08 08:22:00,23.6,21.0,30.27,ENE,63,0.0,0.0,90,0.00,,,0.00,weatherlink.com 1.10,2013-02-08 14:22:00,
2013-02-08 08:37:00,23.7,21.0,30.27,NNW,340,0.0,0.0,89,0.00,,,0.00,weatherlink.com 1.10,2013-02-08 14:37:00,
2013-02-08 08:52:00,24.1,21.0,30.27,NNE,21,0.0,0.0,89,0.00,,,0.00,weatherlink.com 1.10,2013-02-08 14:52:00,
2013-02-08 09:07:00,24.2,21.0,30.28,West,269,0.0,0.0,88,0.00,,,0.00,weatherlink.com 1.10,2013-02-08 15:07:00,
2013-02-08 09:22:00,24.1,21.0,30.29,NW,325,0.0,0.0,88,0.00,,,0.00,weatherlink.com 1.10,2013-02-08 15:22:00,
2013-02-08 09:37:00,24.1,21.0,30.30,North,10,0.0,0.0,87,0.00,,,0.00,weatherlink.com 1.10,2013-02-08 15:37:00,
2013-02-08 09:52:00,24.0,20.0,30.30,WNW,302,0.0,0.0,86,0.00,,,0.00,weatherlink.com 1.10,2013-02-08 15:52:00,
2013-02-08 10:07:00,24.2,21.0,30.30,North,355,0.0,0.0,86,0.00,,,0.00,weatherlink.com 1.10,2013-02-08 16:07:00,
2013-02-08 10:22:00,24.5,21.0,30.31,NNE,16,0.0,0.0,85,0.00,,,0.00,weatherlink.com 1.10,2013-02-08 16:22:00,
2013-02-08 10:37:00,24.7,21.0,30.31,NNW,336,0.0,0.0,85,0.00,,,0.00,weatherlink.com 1.10,2013-02-08 16:37:00,
2013-02-08 10:52:00,25.0,21.0,30.32,NNE,29,0.0,0.0,83,0.00,,,0.00,weatherlink.com 1.10,2013-02-08 16:52:00,
2013-02-08 11:07:00,25.1,21.0,30.32,North,355,0.0,0.0,83,0.00,,,0.00,weatherlink.com 1.10,2013-02-08 17:07:00,
2013-02-08 11:22:00,25.7,21.0,30.33,NNW,327,0.0,0.0,83,0.00,,,0.00,weatherlink.com 1.10,2013-02-08 17:22:00,
2013-02-08 11:37:00,26.2,22.0,30.32,NNE,12,0.0,0.0,83,0.00,,,0.00,weatherlink.com 1.10,2013-02-08 17:37:00,
2013-02-08 11:52:00,26.5,22.0,30.32,NNW,331,0.0,0.0,82,0.00,,,0.00,weatherlink.com 1.10,2013-02-08 17:52:00,
2013-02-08 12:07:00,26.6,22.0,30.32,North,360,0.0,0.0,81,0.02,,,0.02,weatherlink.com 1.10,2013-02-08 18:07:00,
2013-02-08 12:23:00,26.9,22.0,30.31,NNW,329,3.0,5.0,81,0.03,,,0.03,weatherlink.com 1.10,2013-02-08 18:23:00,
2013-02-08 12:38:00,26.6,22.0,30.30,NNE,27,0.0,7.0,81,0.04,,,0.04,weatherlink.com 1.10,2013-02-08 18:38:00,
2013-02-08 12:52:00,26.7,22.0,30.31,NNE,31,1.0,8.0,81,0.05,,,0.05,weatherlink.com 1.10,2013-02-08 18:52:00,
2013-02-08 13:08:00,27.2,22.0,30.31,NW,315,2.0,6.0,79,0.03,,,0.05,weatherlink.com 1.10,2013-02-08 19:08:00,
2013-02-08 13:23:00,27.0,21.0,30.31,NNE,18,2.0,5.0,79,0.03,,,0.06,weatherlink.com 1.10,2013-02-08 19:23:00,
2013-02-08 13:38:00,27.4,21.0,30.32,NNE,16,2.0,5.0,78,0.03,,,0.07,weatherlink.com 1.10,2013-02-08 19:38:00,
2013-02-08 13:53:00,27.4,22.0,30.31,NNW,343,2.0,5.0,79,0.02,,,0.07,weatherlink.com 1.10,2013-02-08 19:53:00,
2013-02-08 14:08:00,27.2,21.0,30.31,NNE,32,3.0,5.0,78,0.02,,,0.07,weatherlink.com 1.10,2013-02-08 20:08:00,
2013-02-08 14:38:00,27.5,21.0,30.32,NNW,344,1.0,4.0,77,0.01,,,0.08,weatherlink.com 1.10,2013-02-08 20:38:00,
2013-02-08 14:53:00,27.9,22.0,30.32,NW,323,1.0,3.0,77,0.02,,,0.09,weatherlink.com 1.10,2013-02-08 20:53:00,
2013-02-08 15:08:00,27.5,21.0,30.32,North,5,2.0,4.0,76,0.02,,,0.09,weatherlink.com 1.10,2013-02-08 21:08:00,
2013-02-08 15:23:00,27.2,21.0,30.32,North,9,3.0,4.0,76,0.01,,,0.09,weatherlink.com 1.10,2013-02-08 21:23:00,
2013-02-08 15:38:00,27.0,20.0,30.32,NE,50,1.0,2.0,76,0.01,,,0.09,weatherlink.com 1.10,2013-02-08 21:38:00,
2013-02-08 15:53:00,26.7,20.0,30.32,ENE,67,0.0,2.0,76,0.00,,,0.09,weatherlink.com 1.10,2013-02-08 21:53:00,
2013-02-08 16:08:00,25.8,19.0,30.32,SE,128,2.0,3.0,76,0.01,,,0.10,weatherlink.com 1.10,2013-02-08 22:08:00,
2013-02-08 16:23:00,25.9,20.0,30.33,SW,236,0.0,2.0,78,0.01,,,0.10,weatherlink.com 1.10,2013-02-08 22:23:00,
2013-02-08 16:38:00,25.4,20.0,30.34,WSW,252,0.0,1.0,79,0.01,,,0.10,weatherlink.com 1.10,2013-02-08 22:38:00,
2013-02-08 16:53:00,24.7,19.0,30.33,WSW,252,0.0,0.0,80,0.01,,,0.10,weatherlink.com 1.10,2013-02-08 22:53:00,
2013-02-08 17:08:00,24.2,19.0,30.32,WSW,252,0.0,0.0,80,0.00,,,0.10,weatherlink.com 1.10,2013-02-08 23:08:00,
2013-02-08 17:23:00,22.8,18.0,30.34,WSW,252,0.0,0.0,82,0.00,,,0.10,weatherlink.com 1.10,2013-02-08 23:23:00,
2013-02-08 17:38:00,21.9,18.0,30.33,SSE,153,1.0,2.0,84,0.00,,,0.10,weatherlink.com 1.10,2013-02-08 23:38:00,
2013-02-08 17:53:00,20.6,17.0,30.33,ESE,111,1.0,2.0,84,0.00,,,0.10,weatherlink.com 1.10,2013-02-08 23:53:00,
2013-02-08 18:08:00,20.0,17.0,30.33,ESE,111,0.0,1.0,87,0.00,,,0.10,weatherlink.com 1.10,2013-02-09 00:08:00,
2013-02-08 18:23:00,20.3,17.0,30.34,ENE,69,0.0,1.0,86,0.00,,,0.10,weatherlink.com 1.10,2013-02-09 00:23:00,
2013-02-08 18:38:00,19.9,17.0,30.34,ENE,69,1.0,1.0,87,0.00,,,0.10,weatherlink.com 1.10,2013-02-09 00:38:00,
2013-02-08 18:53:00,19.6,16.0,30.35,ENE,69,1.0,1.0,87,0.00,,,0.10,weatherlink.com 1.10,2013-02-09 00:53:00,
2013-02-08 19:08:00,18.9,16.0,30.34,East,80,0.0,1.0,88,0.00,,,0.10,weatherlink.com 1.10,2013-02-09 01:08:00,
2013-02-08 19:23:00,18.5,16.0,30.34,East,80,0.0,0.0,89,0.00,,,0.10,weatherlink.com 1.10,2013-02-09 01:23:00,
2013-02-08 19:38:00,18.2,16.0,30.35,East,80,0.0,0.0,89,0.00,,,0.10,weatherlink.com 1.10,2013-02-09 01:38:00,
2013-02-08 20:08:00,17.9,16.0,30.35,East,80,0.0,1.0,91,0.00,,,0.10,weatherlink.com 1.10,2013-02-09 02:08:00,
2013-02-08 20:23:00,18.0,16.0,30.36,East,80,0.0,2.0,91,0.00,,,0.10,weatherlink.com 1.10,2013-02-09 02:23:00,
2013-02-08 20:38:00,18.1,16.0,30.35,East,80,1.0,2.0,91,0.00,,,0.10,weatherlink.com 1.10,2013-02-09 02:38:00,
2013-02-08 20:53:00,18.2,16.0,30.34,East,80,1.0,3.0,90,0.00,,,0.10,weatherlink.com 1.10,2013-02-09 02:53:00,
2013-02-08 21:08:00,18.1,16.0,30.34,East,88,0.0,3.0,90,0.00,,,0.10,weatherlink.com 1.10,2013-02-09 03:08:00,
2013-02-08 21:23:00,17.7,15.0,30.34,East,96,1.0,3.0,90,0.00,,,0.10,weatherlink.com 1.10,2013-02-09 03:23:00,
2013-02-08 21:38:00,17.5,15.0,30.35,East,95,2.0,3.0,90,0.00,,,0.10,weatherlink.com 1.10,2013-02-09 03:38:00,
2013-02-08 21:53:00,17.3,15.0,30.35,East,94,2.0,3.0,91,0.00,,,0.10,weatherlink.com 1.10,2013-02-09 03:53:00,
2013-02-08 22:08:00,17.2,15.0,30.35,ESE,105,2.0,3.0,91,0.00,,,0.10,weatherlink.com 1.10,2013-02-09 04:08:00,
2013-02-08 22:23:00,16.9,15.0,30.35,ESE,105,1.0,5.0,92,0.00,,,0.10,weatherlink.com 1.10,2013-02-09 04:23:00,
2013-02-08 22:38:00,17.0,15.0,30.35,ESE,109,4.0,5.0,92,0.00,,,0.10,weatherlink.com 1.10,2013-02-09 04:38:00,
2013-02-08 22:53:00,16.3,14.0,30.34,ESE,111,3.0,5.0,92,0.00,,,0.10,weatherlink.com 1.10,2013-02-09 04:53:00,
2013-02-08 23:08:00,15.9,14.0,30.34,ESE,113,3.0,5.0,93,0.00,,,0.10,weatherlink.com 1.10,2013-02-09 05:08:00,
2013-02-08 23:23:00,15.6,14.0,30.35,ESE,110,3.0,4.0,93,0.00,,,0.10,weatherlink.com 1.10,2013-02-09 05:23:00,
2013-02-08 23:39:00,15.4,14.0,30.35,ESE,108,3.0,4.0,93,0.00,,,0.10,weatherlink.com 1.10,2013-02-09 05:39:00,
2013-02-08 23:54:00,15.4,14.0,30.34,ESE,112,2.0,5.0,94,0.00,,,0.10,weatherlink.com 1.10,2013-02-09 05:54:00,